sensor_id;sensor_type;location;lat;lon;timestamp;temperature;humidity
37281;DHT22;23169;41.804;12.596;2022-07-22T00:01:27;26.70;99.90
37281;DHT22;23169;41.804;12.596;2022-07-22T00:03:58;26.70;99.90
37281;DHT22;23169;41.804;12.596;2022-07-22T00:06:28;26.70;99.90
37281;DHT22;23169;41.804;12.596;2022-07-22T00:08:57;26.80;99.90
37281;DHT22;23169;41.804;12.596;2022-07-22T00:11:25;26.90;99.90
37281;DHT22;23169;41.804;12.596;2022-07-22T00:13:54;26.90;99.90
37281;DHT22;23169;41.804;12.596;2022-07-22T00:16:22;27.00;99.90
37281;DHT22;23169;41.804;12.596;2022-07-22T00:18:51;26.80;99.90
37281;DHT22;23169;41.804;12.596;2022-07-22T00:21:19;27.10;99.90
37281;DHT22;23169;41.804;12.596;2022-07-22T00:23:48;27.10;99.90
37281;DHT22;23169;41.804;12.596;2022-07-22T00:26:16;27.20;99.90
37281;DHT22;23169;41.804;12.596;2022-07-22T00:28:45;27.20;99.90
37281;DHT22;23169;41.804;12.596;2022-07-22T00:31:13;27.10;99.90
37281;DHT22;23169;41.804;12.596;2022-07-22T00:33:44;27.10;99.90
37281;DHT22;23169;41.804;12.596;2022-07-22T00:36:15;27.10;99.90
37281;DHT22;23169;41.804;12.596;2022-07-22T00:38:44;27.10;99.90
37281;DHT22;23169;41.804;12.596;2022-07-22T00:41:12;27.10;99.90
37281;DHT22;23169;41.804;12.596;2022-07-22T00:43:58;27.10;99.90
37281;DHT22;23169;41.804;12.596;2022-07-22T00:46:29;27.10;99.90
37281;DHT22;23169;41.804;12.596;2022-07-22T00:48:58;27.20;99.90
37281;DHT22;23169;41.804;12.596;2022-07-22T00:51:28;27.20;99.90
37281;DHT22;23169;41.804;12.596;2022-07-22T00:53:58;27.20;99.90
37281;DHT22;23169;41.804;12.596;2022-07-22T00:56:29;27.20;99.90
37281;DHT22;23169;41.804;12.596;2022-07-22T00:59:01;27.20;99.90
37281;DHT22;23169;41.804;12.596;2022-07-22T01:01:30;27.20;99.90
37281;DHT22;23169;41.804;12.596;2022-07-22T01:04:00;27.20;99.90
37281;DHT22;23169;41.804;12.596;2022-07-22T01:06:30;27.10;99.90
37281;DHT22;23169;41.804;12.596;2022-07-22T01:08:59;27.10;99.90
37281;DHT22;23169;41.804;12.596;2022-07-22T01:11:28;27.10;99.90
37281;DHT22;23169;41.804;12.596;2022-07-22T01:13:57;27.10;99.90
37281;DHT22;23169;41.804;12.596;2022-07-22T01:16:25;27.00;99.90
37281;DHT22;23169;41.804;12.596;2022-07-22T01:18:53;27.00;99.90
37281;DHT22;23169;41.804;12.596;2022-07-22T01:21:21;27.00;99.90
37281;DHT22;23169;41.804;12.596;2022-07-22T01:23:50;27.00;99.90
37281;DHT22;23169;41.804;12.596;2022-07-22T01:26:19;27.00;99.90
37281;DHT22;23169;41.804;12.596;2022-07-22T01:28:47;27.00;99.90
37281;DHT22;23169;41.804;12.596;2022-07-22T01:31:17;27.00;99.90
37281;DHT22;23169;41.804;12.596;2022-07-22T01:33:46;27.00;99.90
37281;DHT22;23169;41.804;12.596;2022-07-22T01:36:14;27.00;99.90
37281;DHT22;23169;41.804;12.596;2022-07-22T01:38:42;27.00;99.90
37281;DHT22;23169;41.804;12.596;2022-07-22T01:41:10;27.00;99.90
37281;DHT22;23169;41.804;12.596;2022-07-22T01:43:38;27.00;99.90
37281;DHT22;23169;41.804;12.596;2022-07-22T01:46:09;27.00;99.90
37281;DHT22;23169;41.804;12.596;2022-07-22T01:48:39;27.00;99.90
37281;DHT22;23169;41.804;12.596;2022-07-22T01:51:07;26.90;99.90
37281;DHT22;23169;41.804;12.596;2022-07-22T01:53:35;26.90;99.90
37281;DHT22;23169;41.804;12.596;2022-07-22T01:56:04;26.90;99.90
37281;DHT22;23169;41.804;12.596;2022-07-22T01:58:32;26.90;99.90
37281;DHT22;23169;41.804;12.596;2022-07-22T02:01:03;26.90;99.90
37281;DHT22;23169;41.804;12.596;2022-07-22T02:03:32;26.90;99.90
37281;DHT22;23169;41.804;12.596;2022-07-22T02:06:01;26.90;99.90
37281;DHT22;23169;41.804;12.596;2022-07-22T02:08:30;26.80;99.90
37281;DHT22;23169;41.804;12.596;2022-07-22T02:10:59;26.90;99.90
37281;DHT22;23169;41.804;12.596;2022-07-22T02:13:27;26.80;99.90
37281;DHT22;23169;41.804;12.596;2022-07-22T02:15:55;26.80;99.90
37281;DHT22;23169;41.804;12.596;2022-07-22T02:18:23;26.80;99.90
37281;DHT22;23169;41.804;12.596;2022-07-22T02:20:53;26.80;99.90
37281;DHT22;23169;41.804;12.596;2022-07-22T02:23:21;26.80;99.90
37281;DHT22;23169;41.804;12.596;2022-07-22T02:25:52;26.80;99.90
37281;DHT22;23169;41.804;12.596;2022-07-22T02:28:20;26.80;99.90
37281;DHT22;23169;41.804;12.596;2022-07-22T02:30:48;26.80;99.90
37281;DHT22;23169;41.804;12.596;2022-07-22T02:33:17;26.80;99.90
37281;DHT22;23169;41.804;12.596;2022-07-22T02:35:45;26.80;99.90
37281;DHT22;23169;41.804;12.596;2022-07-22T02:38:13;26.70;99.90
37281;DHT22;23169;41.804;12.596;2022-07-22T02:40:41;26.70;99.90
37281;DHT22;23169;41.804;12.596;2022-07-22T02:43:11;26.70;99.90
37281;DHT22;23169;41.804;12.596;2022-07-22T02:45:39;26.70;99.90
37281;DHT22;23169;41.804;12.596;2022-07-22T02:48:08;26.70;23.60
37281;DHT22;23169;41.804;12.596;2022-07-22T02:50:36;26.70;1.00
37281;DHT22;23169;41.804;12.596;2022-07-22T02:53:05;26.70;1.00
37281;DHT22;23169;41.804;12.596;2022-07-22T02:55:34;26.70;99.90
37281;DHT22;23169;41.804;12.596;2022-07-22T02:58:06;26.70;99.90
37281;DHT22;23169;41.804;12.596;2022-07-22T03:00:36;26.70;99.90
37281;DHT22;23169;41.804;12.596;2022-07-22T03:03:05;26.60;1.00
37281;DHT22;23169;41.804;12.596;2022-07-22T03:05:34;26.60;58.50
37281;DHT22;23169;41.804;12.596;2022-07-22T03:08:03;26.60;99.90
37281;DHT22;23169;41.804;12.596;2022-07-22T03:10:32;26.60;99.90
37281;DHT22;23169;41.804;12.596;2022-07-22T03:13:01;26.60;99.90
37281;DHT22;23169;41.804;12.596;2022-07-22T03:15:29;26.50;99.90
37281;DHT22;23169;41.804;12.596;2022-07-22T03:18:01;26.50;99.90
37281;DHT22;23169;41.804;12.596;2022-07-22T03:20:30;26.50;99.90
37281;DHT22;23169;41.804;12.596;2022-07-22T03:22:59;26.50;99.90
37281;DHT22;23169;41.804;12.596;2022-07-22T03:25:27;26.50;99.90
37281;DHT22;23169;41.804;12.596;2022-07-22T03:27:55;26.50;99.90
37281;DHT22;23169;41.804;12.596;2022-07-22T03:30:24;26.40;99.90
37281;DHT22;23169;41.804;12.596;2022-07-22T03:32:52;26.40;99.90
37281;DHT22;23169;41.804;12.596;2022-07-22T03:35:20;26.50;99.90
37281;DHT22;23169;41.804;12.596;2022-07-22T03:37:48;26.40;99.90
37281;DHT22;23169;41.804;12.596;2022-07-22T03:40:17;26.40;99.90
37281;DHT22;23169;41.804;12.596;2022-07-22T03:42:45;26.30;99.90
37281;DHT22;23169;41.804;12.596;2022-07-22T03:45:13;26.30;99.90
37281;DHT22;23169;41.804;12.596;2022-07-22T03:47:42;26.30;99.90
37281;DHT22;23169;41.804;12.596;2022-07-22T03:50:12;26.30;99.90
37281;DHT22;23169;41.804;12.596;2022-07-22T03:52:40;26.30;99.90
37281;DHT22;23169;41.804;12.596;2022-07-22T03:55:08;26.20;99.90
37281;DHT22;23169;41.804;12.596;2022-07-22T03:57:36;26.20;99.90
37281;DHT22;23169;41.804;12.596;2022-07-22T04:00:05;26.10;99.90
37281;DHT22;23169;41.804;12.596;2022-07-22T04:02:34;26.00;99.90
37281;DHT22;23169;41.804;12.596;2022-07-22T04:05:05;26.00;99.90
37281;DHT22;23169;41.804;12.596;2022-07-22T04:07:34;26.00;99.90
37281;DHT22;23169;41.804;12.596;2022-07-22T04:10:02;26.00;99.90
37281;DHT22;23169;41.804;12.596;2022-07-22T04:12:34;26.00;99.90
37281;DHT22;23169;41.804;12.596;2022-07-22T04:15:04;26.00;99.90
37281;DHT22;23169;41.804;12.596;2022-07-22T04:17:33;26.00;99.90
37281;DHT22;23169;41.804;12.596;2022-07-22T04:20:07;26.00;99.90
37281;DHT22;23169;41.804;12.596;2022-07-22T04:22:36;26.00;99.90
37281;DHT22;23169;41.804;12.596;2022-07-22T04:25:04;26.00;99.90
37281;DHT22;23169;41.804;12.596;2022-07-22T04:27:33;26.00;99.90
37281;DHT22;23169;41.804;12.596;2022-07-22T04:30:02;26.00;99.90
37281;DHT22;23169;41.804;12.596;2022-07-22T04:32:31;26.00;99.90
37281;DHT22;23169;41.804;12.596;2022-07-22T04:34:59;26.10;99.90
37281;DHT22;23169;41.804;12.596;2022-07-22T04:37:31;26.20;99.90
37281;DHT22;23169;41.804;12.596;2022-07-22T04:39:59;26.20;99.90
37281;DHT22;23169;41.804;12.596;2022-07-22T04:42:27;26.30;99.90
37281;DHT22;23169;41.804;12.596;2022-07-22T04:44:56;26.30;99.90
37281;DHT22;23169;41.804;12.596;2022-07-22T04:47:24;26.30;99.90
37281;DHT22;23169;41.804;12.596;2022-07-22T04:49:52;26.30;99.90
37281;DHT22;23169;41.804;12.596;2022-07-22T04:52:21;26.40;99.90
37281;DHT22;23169;41.804;12.596;2022-07-22T04:54:49;26.40;99.90
37281;DHT22;23169;41.804;12.596;2022-07-22T04:57:17;26.40;99.90
37281;DHT22;23169;41.804;12.596;2022-07-22T04:59:46;26.50;99.90
37281;DHT22;23169;41.804;12.596;2022-07-22T05:02:14;26.50;99.90
37281;DHT22;23169;41.804;12.596;2022-07-22T05:04:42;26.50;99.90
37281;DHT22;23169;41.804;12.596;2022-07-22T05:07:10;26.50;99.90
37281;DHT22;23169;41.804;12.596;2022-07-22T05:09:38;26.40;99.90
37281;DHT22;23169;41.804;12.596;2022-07-22T05:12:06;26.40;99.90
37281;DHT22;23169;41.804;12.596;2022-07-22T05:14:35;26.40;99.90
37281;DHT22;23169;41.804;12.596;2022-07-22T05:17:09;26.40;99.90
37281;DHT22;23169;41.804;12.596;2022-07-22T05:19:40;26.40;99.90
37281;DHT22;23169;41.804;12.596;2022-07-22T05:22:08;26.50;99.90
37281;DHT22;23169;41.804;12.596;2022-07-22T05:24:39;26.50;99.90
37281;DHT22;23169;41.804;12.596;2022-07-22T05:27:08;26.50;99.90
37281;DHT22;23169;41.804;12.596;2022-07-22T05:29:37;26.50;99.90
37281;DHT22;23169;41.804;12.596;2022-07-22T05:32:08;26.50;99.90
37281;DHT22;23169;41.804;12.596;2022-07-22T05:34:36;26.60;99.90
37281;DHT22;23169;41.804;12.596;2022-07-22T05:37:04;26.60;99.90
37281;DHT22;23169;41.804;12.596;2022-07-22T05:39:34;26.70;99.90
37281;DHT22;23169;41.804;12.596;2022-07-22T05:42:02;26.70;99.90
37281;DHT22;23169;41.804;12.596;2022-07-22T05:44:32;26.80;99.90
37281;DHT22;23169;41.804;12.596;2022-07-22T05:47:01;26.80;99.90
37281;DHT22;23169;41.804;12.596;2022-07-22T05:49:29;26.90;99.90
37281;DHT22;23169;41.804;12.596;2022-07-22T05:51:57;26.90;99.90
37281;DHT22;23169;41.804;12.596;2022-07-22T05:54:28;27.00;99.90
37281;DHT22;23169;41.804;12.596;2022-07-22T05:56:57;27.00;99.90
37281;DHT22;23169;41.804;12.596;2022-07-22T05:59:28;27.10;99.90
37281;DHT22;23169;41.804;12.596;2022-07-22T06:01:56;27.10;99.90
37281;DHT22;23169;41.804;12.596;2022-07-22T06:04:24;27.10;99.90
37281;DHT22;23169;41.804;12.596;2022-07-22T06:06:52;27.30;99.90
37281;DHT22;23169;41.804;12.596;2022-07-22T06:09:20;27.20;99.90
37281;DHT22;23169;41.804;12.596;2022-07-22T06:11:48;27.30;99.90
37281;DHT22;23169;41.804;12.596;2022-07-22T06:14:16;27.40;99.90
37281;DHT22;23169;41.804;12.596;2022-07-22T06:16:48;27.50;99.90
37281;DHT22;23169;41.804;12.596;2022-07-22T06:19:16;27.50;99.90
37281;DHT22;23169;41.804;12.596;2022-07-22T06:21:44;27.60;99.90
37281;DHT22;23169;41.804;12.596;2022-07-22T06:24:12;27.70;99.90
37281;DHT22;23169;41.804;12.596;2022-07-22T06:26:41;27.80;99.90
37281;DHT22;23169;41.804;12.596;2022-07-22T06:29:10;27.90;99.90
37281;DHT22;23169;41.804;12.596;2022-07-22T06:31:38;27.90;99.90
37281;DHT22;23169;41.804;12.596;2022-07-22T06:34:06;28.00;99.90
37281;DHT22;23169;41.804;12.596;2022-07-22T06:36:35;28.10;99.90
37281;DHT22;23169;41.804;12.596;2022-07-22T06:39:06;28.10;99.90
37281;DHT22;23169;41.804;12.596;2022-07-22T06:41:34;28.20;99.90
37281;DHT22;23169;41.804;12.596;2022-07-22T06:44:02;28.30;99.90
37281;DHT22;23169;41.804;12.596;2022-07-22T06:46:31;28.30;99.90
37281;DHT22;23169;41.804;12.596;2022-07-22T06:49:02;28.50;99.90
37281;DHT22;23169;41.804;12.596;2022-07-22T06:51:31;28.60;99.90
37281;DHT22;23169;41.804;12.596;2022-07-22T06:53:59;28.70;99.90
37281;DHT22;23169;41.804;12.596;2022-07-22T06:56:28;28.70;99.90
37281;DHT22;23169;41.804;12.596;2022-07-22T06:58:56;28.80;99.90
37281;DHT22;23169;41.804;12.596;2022-07-22T07:01:24;28.90;99.90
37281;DHT22;23169;41.804;12.596;2022-07-22T07:03:52;29.00;99.90
37281;DHT22;23169;41.804;12.596;2022-07-22T07:06:20;29.10;99.90
37281;DHT22;23169;41.804;12.596;2022-07-22T07:08:48;29.20;99.90
37281;DHT22;23169;41.804;12.596;2022-07-22T07:11:16;29.30;99.90
37281;DHT22;23169;41.804;12.596;2022-07-22T07:13:44;29.40;99.90
37281;DHT22;23169;41.804;12.596;2022-07-22T07:16:12;29.50;99.90
37281;DHT22;23169;41.804;12.596;2022-07-22T07:18:41;29.60;1.00
37281;DHT22;23169;41.804;12.596;2022-07-22T07:21:09;29.70;1.00
37281;DHT22;23169;41.804;12.596;2022-07-22T07:23:37;29.80;99.90
37281;DHT22;23169;41.804;12.596;2022-07-22T07:26:05;29.90;99.90
37281;DHT22;23169;41.804;12.596;2022-07-22T07:28:34;30.00;99.90
37281;DHT22;23169;41.804;12.596;2022-07-22T07:31:02;30.20;1.00
37281;DHT22;23169;41.804;12.596;2022-07-22T07:33:31;30.20;91.40
37281;DHT22;23169;41.804;12.596;2022-07-22T07:36:00;30.20;1.00
37281;DHT22;23169;41.804;12.596;2022-07-22T07:38:28;30.30;99.90
37281;DHT22;23169;41.804;12.596;2022-07-22T07:40:57;30.50;99.90
37281;DHT22;23169;41.804;12.596;2022-07-22T07:43:25;30.60;20.40
37281;DHT22;23169;41.804;12.596;2022-07-22T07:45:53;30.70;99.90
37281;DHT22;23169;41.804;12.596;2022-07-22T07:48:21;30.80;99.90
37281;DHT22;23169;41.804;12.596;2022-07-22T07:50:51;30.90;1.00
37281;DHT22;23169;41.804;12.596;2022-07-22T07:53:22;31.00;99.90
37281;DHT22;23169;41.804;12.596;2022-07-22T07:55:51;31.00;99.90
37281;DHT22;23169;41.804;12.596;2022-07-22T07:58:19;31.10;1.00
37281;DHT22;23169;41.804;12.596;2022-07-22T08:00:47;31.20;1.00
37281;DHT22;23169;41.804;12.596;2022-07-22T08:03:15;31.40;99.90
37281;DHT22;23169;41.804;12.596;2022-07-22T08:05:48;31.50;99.90
37281;DHT22;23169;41.804;12.596;2022-07-22T08:08:16;31.50;1.00
37281;DHT22;23169;41.804;12.596;2022-07-22T08:10:44;31.60;1.00
37281;DHT22;23169;41.804;12.596;2022-07-22T08:13:12;31.60;99.90
37281;DHT22;23169;41.804;12.596;2022-07-22T08:15:40;31.50;99.90
37281;DHT22;23169;41.804;12.596;2022-07-22T08:18:09;31.50;99.90
37281;DHT22;23169;41.804;12.596;2022-07-22T08:20:37;31.70;99.90
37281;DHT22;23169;41.804;12.596;2022-07-22T08:23:06;31.80;99.90
37281;DHT22;23169;41.804;12.596;2022-07-22T08:25:34;31.90;99.90
37281;DHT22;23169;41.804;12.596;2022-07-22T08:28:03;32.00;82.80
37281;DHT22;23169;41.804;12.596;2022-07-22T08:30:32;32.10;38.40
37281;DHT22;23169;41.804;12.596;2022-07-22T08:33:00;32.30;11.20
37281;DHT22;23169;41.804;12.596;2022-07-22T08:35:30;32.40;1.00
37281;DHT22;23169;41.804;12.596;2022-07-22T08:37:58;32.50;1.00
37281;DHT22;23169;41.804;12.596;2022-07-22T08:40:27;32.50;1.00
37281;DHT22;23169;41.804;12.596;2022-07-22T08:42:55;32.70;1.00
37281;DHT22;23169;41.804;12.596;2022-07-22T08:45:24;32.80;99.90
37281;DHT22;23169;41.804;12.596;2022-07-22T08:47:52;33.00;99.90
37281;DHT22;23169;41.804;12.596;2022-07-22T08:50:20;33.20;99.90
37281;DHT22;23169;41.804;12.596;2022-07-22T08:52:48;33.30;99.90
37281;DHT22;23169;41.804;12.596;2022-07-22T08:55:17;33.40;99.90
37281;DHT22;23169;41.804;12.596;2022-07-22T08:57:46;33.60;99.90
37281;DHT22;23169;41.804;12.596;2022-07-22T09:00:20;33.50;99.90
37281;DHT22;23169;41.804;12.596;2022-07-22T09:02:48;33.60;99.90
37281;DHT22;23169;41.804;12.596;2022-07-22T09:05:17;33.70;99.90
37281;DHT22;23169;41.804;12.596;2022-07-22T09:07:46;33.90;99.90
37281;DHT22;23169;41.804;12.596;2022-07-22T09:10:16;34.00;99.90
37281;DHT22;23169;41.804;12.596;2022-07-22T09:12:56;34.10;99.90
37281;DHT22;23169;41.804;12.596;2022-07-22T09:15:32;34.10;99.90
37281;DHT22;23169;41.804;12.596;2022-07-22T09:18:03;34.10;99.90
37281;DHT22;23169;41.804;12.596;2022-07-22T09:20:34;34.10;99.90
37281;DHT22;23169;41.804;12.596;2022-07-22T09:23:19;34.40;99.90
37281;DHT22;23169;41.804;12.596;2022-07-22T09:25:51;34.60;99.90
37281;DHT22;23169;41.804;12.596;2022-07-22T09:28:22;34.40;99.90
37281;DHT22;23169;41.804;12.596;2022-07-22T09:30:52;34.70;99.90
37281;DHT22;23169;41.804;12.596;2022-07-22T09:33:21;34.80;99.90
37281;DHT22;23169;41.804;12.596;2022-07-22T09:35:50;34.90;97.00
37281;DHT22;23169;41.804;12.596;2022-07-22T09:38:28;34.90;95.40
37281;DHT22;23169;41.804;12.596;2022-07-22T09:41:01;35.20;90.50
37281;DHT22;23169;41.804;12.596;2022-07-22T09:43:35;35.50;84.20
37281;DHT22;23169;41.804;12.596;2022-07-22T09:46:03;35.70;70.10
37281;DHT22;23169;41.804;12.596;2022-07-22T09:48:37;35.70;50.00
37281;DHT22;23169;41.804;12.596;2022-07-22T09:51:05;35.60;34.90
37281;DHT22;23169;41.804;12.596;2022-07-22T09:53:34;35.50;32.80
37281;DHT22;23169;41.804;12.596;2022-07-22T09:56:05;35.60;33.90
37281;DHT22;23169;41.804;12.596;2022-07-22T09:58:38;35.90;33.70
37281;DHT22;23169;41.804;12.596;2022-07-22T10:01:06;36.20;30.80
37281;DHT22;23169;41.804;12.596;2022-07-22T10:03:36;36.40;32.30
37281;DHT22;23169;41.804;12.596;2022-07-22T10:06:07;36.50;40.20
37281;DHT22;23169;41.804;12.596;2022-07-22T10:08:36;36.50;22.30
37281;DHT22;23169;41.804;12.596;2022-07-22T10:11:07;36.70;20.30
37281;DHT22;23169;41.804;12.596;2022-07-22T10:13:37;36.70;10.50
37281;DHT22;23169;41.804;12.596;2022-07-22T10:16:06;36.70;1.00
37281;DHT22;23169;41.804;12.596;2022-07-22T10:18:35;36.90;1.00
37281;DHT22;23169;41.804;12.596;2022-07-22T10:21:08;37.00;1.00
37281;DHT22;23169;41.804;12.596;2022-07-22T10:24:10;37.10;1.00
37281;DHT22;23169;41.804;12.596;2022-07-22T10:26:53;37.30;1.00
37281;DHT22;23169;41.804;12.596;2022-07-22T10:29:25;37.60;1.00
37281;DHT22;23169;41.804;12.596;2022-07-22T10:32:22;37.70;1.00
37281;DHT22;23169;41.804;12.596;2022-07-22T10:37:49;37.90;1.00
37281;DHT22;23169;41.804;12.596;2022-07-22T10:40:19;37.90;1.00
37281;DHT22;23169;41.804;12.596;2022-07-22T10:48:03;37.70;1.00
37281;DHT22;23169;41.804;12.596;2022-07-22T10:53:17;38.00;1.00
37281;DHT22;23169;41.804;12.596;2022-07-22T11:01:10;38.90;1.00
37281;DHT22;23169;41.804;12.596;2022-07-22T11:03:41;39.00;1.00
37281;DHT22;23169;41.804;12.596;2022-07-22T11:06:29;38.90;1.00
37281;DHT22;23169;41.804;12.596;2022-07-22T11:09:01;38.90;1.00
37281;DHT22;23169;41.804;12.596;2022-07-22T11:14:33;39.00;1.00
37281;DHT22;23169;41.804;12.596;2022-07-22T11:17:10;39.30;1.00
37281;DHT22;23169;41.804;12.596;2022-07-22T11:19:39;39.60;1.00
37281;DHT22;23169;41.804;12.596;2022-07-22T11:22:09;39.40;1.00
37281;DHT22;23169;41.804;12.596;2022-07-22T11:24:39;38.70;1.00
37281;DHT22;23169;41.804;12.596;2022-07-22T11:27:16;38.40;1.00
37281;DHT22;23169;41.804;12.596;2022-07-22T11:29:50;38.40;1.00
37281;DHT22;23169;41.804;12.596;2022-07-22T11:32:24;38.30;1.00
37281;DHT22;23169;41.804;12.596;2022-07-22T11:34:53;38.60;1.00
37281;DHT22;23169;41.804;12.596;2022-07-22T11:37:24;39.00;1.00
37281;DHT22;23169;41.804;12.596;2022-07-22T11:40:07;39.20;1.00
37281;DHT22;23169;41.804;12.596;2022-07-22T11:42:36;39.20;1.00
37281;DHT22;23169;41.804;12.596;2022-07-22T11:45:05;39.30;1.00
37281;DHT22;23169;41.804;12.596;2022-07-22T11:47:34;39.70;1.00
37281;DHT22;23169;41.804;12.596;2022-07-22T11:50:03;39.30;1.00
37281;DHT22;23169;41.804;12.596;2022-07-22T11:52:32;39.10;1.00
37281;DHT22;23169;41.804;12.596;2022-07-22T11:55:00;38.60;1.00
37281;DHT22;23169;41.804;12.596;2022-07-22T11:57:28;38.50;1.00
37281;DHT22;23169;41.804;12.596;2022-07-22T12:00:06;38.70;1.00
37281;DHT22;23169;41.804;12.596;2022-07-22T12:02:34;39.10;1.00
37281;DHT22;23169;41.804;12.596;2022-07-22T12:05:02;39.10;1.00
37281;DHT22;23169;41.804;12.596;2022-07-22T12:07:31;39.40;1.00
37281;DHT22;23169;41.804;12.596;2022-07-22T12:09:59;39.60;1.00
37281;DHT22;23169;41.804;12.596;2022-07-22T12:12:40;39.70;1.00
37281;DHT22;23169;41.804;12.596;2022-07-22T12:15:09;39.60;1.00
37281;DHT22;23169;41.804;12.596;2022-07-22T12:17:38;39.60;1.00
37281;DHT22;23169;41.804;12.596;2022-07-22T12:20:12;39.30;1.00
37281;DHT22;23169;41.804;12.596;2022-07-22T12:22:46;39.20;1.00
37281;DHT22;23169;41.804;12.596;2022-07-22T12:25:14;39.40;1.00
37281;DHT22;23169;41.804;12.596;2022-07-22T12:27:59;39.10;1.00
37281;DHT22;23169;41.804;12.596;2022-07-22T12:30:28;39.40;1.00
37281;DHT22;23169;41.804;12.596;2022-07-22T12:32:56;40.00;1.00
37281;DHT22;23169;41.804;12.596;2022-07-22T12:35:27;40.00;1.00
37281;DHT22;23169;41.804;12.596;2022-07-22T12:38:08;39.80;1.00
37281;DHT22;23169;41.804;12.596;2022-07-22T12:40:38;39.70;1.00
37281;DHT22;23169;41.804;12.596;2022-07-22T12:43:09;39.90;1.00
37281;DHT22;23169;41.804;12.596;2022-07-22T12:45:38;40.20;1.00
37281;DHT22;23169;41.804;12.596;2022-07-22T12:48:08;40.40;1.00
37281;DHT22;23169;41.804;12.596;2022-07-22T12:50:37;40.80;1.00
37281;DHT22;23169;41.804;12.596;2022-07-22T12:53:14;40.80;1.00
37281;DHT22;23169;41.804;12.596;2022-07-22T12:58:15;41.20;1.00
37281;DHT22;23169;41.804;12.596;2022-07-22T13:00:49;40.90;1.00
37281;DHT22;23169;41.804;12.596;2022-07-22T13:03:18;39.80;1.00
37281;DHT22;23169;41.804;12.596;2022-07-22T13:05:57;40.10;1.00
37281;DHT22;23169;41.804;12.596;2022-07-22T13:08:27;40.10;1.00
37281;DHT22;23169;41.804;12.596;2022-07-22T13:10:56;40.50;1.00
37281;DHT22;23169;41.804;12.596;2022-07-22T13:13:24;40.40;1.00
37281;DHT22;23169;41.804;12.596;2022-07-22T13:15:53;40.40;1.00
37281;DHT22;23169;41.804;12.596;2022-07-22T13:18:24;39.90;1.00
37281;DHT22;23169;41.804;12.596;2022-07-22T13:20:52;39.70;1.00
37281;DHT22;23169;41.804;12.596;2022-07-22T13:23:21;39.50;1.00
37281;DHT22;23169;41.804;12.596;2022-07-22T13:25:50;39.40;1.00
37281;DHT22;23169;41.804;12.596;2022-07-22T13:28:18;39.30;1.00
37281;DHT22;23169;41.804;12.596;2022-07-22T13:30:46;39.80;1.00
37281;DHT22;23169;41.804;12.596;2022-07-22T13:33:15;40.00;1.00
37281;DHT22;23169;41.804;12.596;2022-07-22T13:35:45;39.50;1.00
37281;DHT22;23169;41.804;12.596;2022-07-22T13:38:13;39.70;1.00
37281;DHT22;23169;41.804;12.596;2022-07-22T13:40:45;40.30;1.00
37281;DHT22;23169;41.804;12.596;2022-07-22T13:43:20;40.70;1.00
37281;DHT22;23169;41.804;12.596;2022-07-22T13:45:49;40.80;1.00
37281;DHT22;23169;41.804;12.596;2022-07-22T13:48:18;40.80;1.00
37281;DHT22;23169;41.804;12.596;2022-07-22T13:50:47;40.70;1.00
37281;DHT22;23169;41.804;12.596;2022-07-22T13:53:16;39.90;1.00
37281;DHT22;23169;41.804;12.596;2022-07-22T13:55:44;40.00;1.00
37281;DHT22;23169;41.804;12.596;2022-07-22T13:58:13;40.10;1.00
37281;DHT22;23169;41.804;12.596;2022-07-22T14:00:41;39.30;1.00
37281;DHT22;23169;41.804;12.596;2022-07-22T14:03:11;39.30;1.00
37281;DHT22;23169;41.804;12.596;2022-07-22T14:05:39;39.80;1.00
37281;DHT22;23169;41.804;12.596;2022-07-22T14:08:08;39.30;1.00
37281;DHT22;23169;41.804;12.596;2022-07-22T14:10:36;38.80;1.00
37281;DHT22;23169;41.804;12.596;2022-07-22T14:13:07;38.90;1.00
37281;DHT22;23169;41.804;12.596;2022-07-22T14:15:35;39.40;1.00
37281;DHT22;23169;41.804;12.596;2022-07-22T14:18:03;40.00;1.00
37281;DHT22;23169;41.804;12.596;2022-07-22T14:20:35;40.50;1.00
37281;DHT22;23169;41.804;12.596;2022-07-22T14:23:04;40.50;1.00
37281;DHT22;23169;41.804;12.596;2022-07-22T14:25:37;40.50;1.00
37281;DHT22;23169;41.804;12.596;2022-07-22T14:28:06;39.70;1.00
37281;DHT22;23169;41.804;12.596;2022-07-22T14:30:34;39.00;1.00
37281;DHT22;23169;41.804;12.596;2022-07-22T14:33:03;38.80;1.00
37281;DHT22;23169;41.804;12.596;2022-07-22T14:35:31;39.20;1.00
37281;DHT22;23169;41.804;12.596;2022-07-22T14:38:03;39.70;1.00
37281;DHT22;23169;41.804;12.596;2022-07-22T14:40:31;40.30;1.00
37281;DHT22;23169;41.804;12.596;2022-07-22T14:42:59;40.10;1.00
37281;DHT22;23169;41.804;12.596;2022-07-22T14:45:28;39.90;1.00
37281;DHT22;23169;41.804;12.596;2022-07-22T14:47:56;40.00;1.00
37281;DHT22;23169;41.804;12.596;2022-07-22T14:50:24;39.50;1.00
37281;DHT22;23169;41.804;12.596;2022-07-22T14:52:53;39.80;1.00
37281;DHT22;23169;41.804;12.596;2022-07-22T14:55:21;39.90;1.00
37281;DHT22;23169;41.804;12.596;2022-07-22T14:57:49;40.20;1.00
37281;DHT22;23169;41.804;12.596;2022-07-22T15:00:18;40.70;1.00
37281;DHT22;23169;41.804;12.596;2022-07-22T15:02:46;41.10;1.00
37281;DHT22;23169;41.804;12.596;2022-07-22T15:05:15;40.50;1.00
37281;DHT22;23169;41.804;12.596;2022-07-22T15:07:43;40.00;1.00
37281;DHT22;23169;41.804;12.596;2022-07-22T15:10:11;40.10;1.00
37281;DHT22;23169;41.804;12.596;2022-07-22T15:12:39;39.80;1.00
37281;DHT22;23169;41.804;12.596;2022-07-22T15:15:08;39.60;1.00
37281;DHT22;23169;41.804;12.596;2022-07-22T15:17:38;40.30;1.00
37281;DHT22;23169;41.804;12.596;2022-07-22T15:20:07;40.20;1.00
37281;DHT22;23169;41.804;12.596;2022-07-22T15:22:36;40.30;1.00
37281;DHT22;23169;41.804;12.596;2022-07-22T15:25:04;40.20;1.00
37281;DHT22;23169;41.804;12.596;2022-07-22T15:27:36;40.50;1.00
37281;DHT22;23169;41.804;12.596;2022-07-22T15:30:07;40.70;1.00
37281;DHT22;23169;41.804;12.596;2022-07-22T15:32:36;41.00;1.00
37281;DHT22;23169;41.804;12.596;2022-07-22T15:35:07;41.10;1.00
37281;DHT22;23169;41.804;12.596;2022-07-22T15:37:36;41.30;1.00
37281;DHT22;23169;41.804;12.596;2022-07-22T15:40:08;40.60;1.00
37281;DHT22;23169;41.804;12.596;2022-07-22T15:42:38;40.10;1.00
37281;DHT22;23169;41.804;12.596;2022-07-22T15:45:07;40.20;1.00
37281;DHT22;23169;41.804;12.596;2022-07-22T15:47:36;40.40;1.00
37281;DHT22;23169;41.804;12.596;2022-07-22T15:50:05;39.70;1.00
37281;DHT22;23169;41.804;12.596;2022-07-22T15:52:36;39.40;1.00
37281;DHT22;23169;41.804;12.596;2022-07-22T15:55:05;39.80;1.00
37281;DHT22;23169;41.804;12.596;2022-07-22T15:57:33;39.70;1.00
37281;DHT22;23169;41.804;12.596;2022-07-22T16:00:20;39.50;1.00